Alpine, Arizona
Current Conditions -  °F | °C
As of 4:35 AM on Monday 20 Oct 2014 (Local Time) from KJTC Reporting Station
Clear Clear  
Wind Chill:   Ceiling: Unl
Heat Index:   Visibility: 10mi
Dew Point:   Wind: 0mph
Humidity: 87%   Direction: NA
Pressure: 30.18"   Gusts: NA
Location:  33.85°N, 109.14°W
Report Text: KJTC 201135Z AUTO 00000KT 10SM CLR 04/02 A3018 RMK AO2
Loading
Personal Weather Stations






























Interactive Weather Map
Tropical Storm Tracking
New forecast layout! Learn more

10-Day Weather Forecast

Advertisements
Track Severe Weather on mobile